createdAt,value
2018-01-19T00:00:53.339Z,91.30
2018-01-19T00:03:23.099Z,91.33
2018-01-19T00:05:51.297Z,91.58
2018-01-19T00:08:19.495Z,91.64
2018-01-19T00:10:47.545Z,91.72
2018-01-19T00:13:18.574Z,91.68
2018-01-19T00:15:46.583Z,91.74
2018-01-19T00:18:14.624Z,91.73
2018-01-19T00:20:42.631Z,91.86
2018-01-19T00:23:13.511Z,91.87
2018-01-19T00:25:41.445Z,92.13
2018-01-19T00:28:09.513Z,92.11
2018-01-19T00:30:39.125Z,92.20
2018-01-19T00:33:15.417Z,92.28
2018-01-19T00:35:43.345Z,92.40
2018-01-19T00:38:14.617Z,92.37
2018-01-19T00:40:42.681Z,92.46
2018-01-19T00:43:10.711Z,92.44
2018-01-19T00:45:38.541Z,92.60
2018-01-19T00:48:06.577Z,92.55
2018-01-19T00:50:36.471Z,92.66
2018-01-19T00:53:04.515Z,92.85
2018-01-19T00:55:32.663Z,93.05
2018-01-19T00:58:03.341Z,93.24
2018-01-19T01:00:31.377Z,93.37
2018-01-19T01:03:00.393Z,93.52
2018-01-19T01:05:28.363Z,93.41
2018-01-19T01:07:56.347Z,93.40
2018-01-19T01:10:24.909Z,93.28
2018-01-19T01:12:52.851Z,93.25
2018-01-19T01:15:20.752Z,93.44
2018-01-19T01:17:48.724Z,93.04
2018-01-19T01:20:16.792Z,92.82
2018-01-19T01:22:46.420Z,92.85
2018-01-19T01:25:14.400Z,93.18
2018-01-19T01:27:44.041Z,93.30
2018-01-19T01:30:12.064Z,93.20
2018-01-19T01:32:41.851Z,92.97
2018-01-19T01:35:16.889Z,92.86
2018-01-19T01:37:44.979Z,93.04
2018-01-19T01:40:13.721Z,93.17
2018-01-19T01:42:47.126Z,93.16
2018-01-19T01:45:15.140Z,93.25
2018-01-19T01:47:43.395Z,93.36
2018-01-19T01:50:11.603Z,93.37
2018-01-19T01:52:39.878Z,93.25
2018-01-19T01:55:08.057Z,93.42
2018-01-19T01:57:36.028Z,93.52
2018-01-19T02:00:04.737Z,93.50
2018-01-19T02:02:34.304Z,93.44
2018-01-19T02:05:02.290Z,93.54
2018-01-19T02:07:30.166Z,93.56
2018-01-19T02:09:58.143Z,93.73
2018-01-19T02:12:28.580Z,93.63
2018-01-19T02:14:59.162Z,93.63
2018-01-19T02:17:28.591Z,93.45
2018-01-19T02:19:57.200Z,93.54
2018-01-19T02:22:25.092Z,93.55
2018-01-19T02:24:53.058Z,93.53
2018-01-19T02:27:21.663Z,93.60
2018-01-19T02:29:51.347Z,93.78
2018-01-19T02:32:19.330Z,93.79
2018-01-19T02:34:47.286Z,94.01
2018-01-19T02:37:15.152Z,93.98
2018-01-19T02:39:44.564Z,94.08
2018-01-19T02:42:12.742Z,94.22
2018-01-19T02:44:40.710Z,94.38
2018-01-19T02:47:14.776Z,94.58
2018-01-19T02:49:48.773Z,94.79
2018-01-19T02:52:19.448Z,94.87
2018-01-19T02:54:47.501Z,94.96
2018-01-19T02:57:23.286Z,95.04
2018-01-19T02:59:51.138Z,95.13
2018-01-19T03:02:19.876Z,95.14
2018-01-19T03:04:47.884Z,95.29
2018-01-19T03:07:15.996Z,95.38
2018-01-19T03:09:46.961Z,95.56
2018-01-19T03:12:21.131Z,95.58
2018-01-19T03:14:49.022Z,95.55
2018-01-19T03:17:18.750Z,95.52
2018-01-19T03:19:46.836Z,95.43
2018-01-19T03:22:16.294Z,95.43
2018-01-19T03:24:44.325Z,95.21
2018-01-19T03:27:12.367Z,95.08
2018-01-19T03:29:41.862Z,94.90
2018-01-19T03:32:09.744Z,94.63
2018-01-19T03:34:37.818Z,94.10
2018-01-19T03:37:06.824Z,93.66
2018-01-19T03:39:35.700Z,93.48
2018-01-19T03:42:03.679Z,93.36
2018-01-19T03:44:31.752Z,92.72
2018-01-19T03:46:59.737Z,92.35
2018-01-19T03:49:27.706Z,92.28
2018-01-19T03:51:57.402Z,92.19
2018-01-19T03:54:25.384Z,92.37
2018-01-19T03:56:53.370Z,92.53
2018-01-19T03:59:21.332Z,92.63
2018-01-19T04:01:51.162Z,93.02
2018-01-19T04:04:19.144Z,93.15
2018-01-19T04:06:47.086Z,93.19
2018-01-19T04:09:15.164Z,93.51
2018-01-19T04:11:43.786Z,93.66
2018-01-19T04:14:13.364Z,93.89
2018-01-19T04:16:41.436Z,94.08
2018-01-19T04:19:11.018Z,94.32
2018-01-19T04:21:39.760Z,94.37
2018-01-19T04:24:07.706Z,94.58
2018-01-19T04:26:35.884Z,94.48
2018-01-19T04:29:06.402Z,94.17
2018-01-19T04:31:34.384Z,94.12
2018-01-19T04:34:04.235Z,94.20
2018-01-19T04:36:33.863Z,94.13
2018-01-19T04:39:01.990Z,93.41
2018-01-19T04:41:29.912Z,91.21
2018-01-19T04:43:57.904Z,90.82
2018-01-19T04:46:25.982Z,91.45
2018-01-19T04:48:54.718Z,92.27
2018-01-19T04:51:23.419Z,92.98
2018-01-19T04:53:54.324Z,93.42
2018-01-19T04:56:22.400Z,94.07
2018-01-19T04:58:50.216Z,94.11
2018-01-19T05:01:18.334Z,94.42
2018-01-19T05:03:46.330Z,94.59
2018-01-19T05:06:14.402Z,94.79
2018-01-19T05:08:42.476Z,95.09
2018-01-19T05:11:10.660Z,95.10
2018-01-19T05:13:38.622Z,95.36
2018-01-19T05:16:09.634Z,95.17
2018-01-19T05:18:37.674Z,95.17
2018-01-19T05:21:07.338Z,95.26
2018-01-19T05:23:35.282Z,95.46
2018-01-19T05:26:03.274Z,95.77
2018-01-19T05:28:32.916Z,95.40
2018-01-19T05:31:02.582Z,95.59
2018-01-19T05:33:30.688Z,95.22
2018-01-19T05:35:58.566Z,95.10
2018-01-19T05:38:27.378Z,95.06
2018-01-19T05:40:55.350Z,94.88
2018-01-19T05:43:23.292Z,94.53
2018-01-19T05:45:51.269Z,94.23
2018-01-19T05:48:19.251Z,93.61
2018-01-19T05:50:47.216Z,93.37
2018-01-19T05:53:15.402Z,93.28
2018-01-19T05:55:47.287Z,92.91
2018-01-19T05:58:16.894Z,92.67
2018-01-19T06:00:44.936Z,92.76
2018-01-19T06:03:13.515Z,92.71
2018-01-19T06:05:41.602Z,92.89
2018-01-19T06:08:11.230Z,92.71
2018-01-19T06:10:39.163Z,93.16
2018-01-19T06:15:39.735Z,93.01
2018-01-19T06:18:07.814Z,93.23
2018-01-19T06:20:35.684Z,93.47
2018-01-19T06:23:05.287Z,93.32
2018-01-19T06:25:33.988Z,93.04
2018-01-19T06:28:01.948Z,93.35
2018-01-19T06:30:30.028Z,93.32
2018-01-19T06:32:57.893Z,93.08
2018-01-19T06:35:29.345Z,93.40
2018-01-19T06:37:57.840Z,93.43
2018-01-19T06:40:27.423Z,93.28
2018-01-19T06:42:55.511Z,93.64
2018-01-19T06:45:24.793Z,93.48
2018-01-19T06:47:55.776Z,93.57
2018-01-19T06:50:24.858Z,93.58
2018-01-19T06:52:55.622Z,93.61
2018-01-19T06:55:28.212Z,93.46
2018-01-19T06:57:57.955Z,93.44
2018-01-19T07:00:25.981Z,93.32
2018-01-19T07:02:55.579Z,92.81
2018-01-19T07:05:23.564Z,92.92
2018-01-19T07:07:53.355Z,92.77
2018-01-19T07:10:21.431Z,92.47
2018-01-19T07:12:49.357Z,92.70
2018-01-19T07:15:17.279Z,92.72
2018-01-19T07:17:45.362Z,92.60
2018-01-19T07:20:15.211Z,92.50
2018-01-19T07:22:44.256Z,92.63
2018-01-19T07:25:13.671Z,93.28
2018-01-19T07:27:41.751Z,93.34
2018-01-19T07:30:09.606Z,93.83
2018-01-19T07:32:37.595Z,94.08
2018-01-19T07:35:05.672Z,94.02
2018-01-19T07:37:33.737Z,94.05
2018-01-19T07:40:03.469Z,94.09
2018-01-19T07:42:32.252Z,93.82
2018-01-19T07:45:00.311Z,94.08
2018-01-19T07:47:28.198Z,92.86
2018-01-19T07:49:56.253Z,91.93
2018-01-19T07:52:28.917Z,91.15
2018-01-19T07:54:57.107Z,91.05
2018-01-19T07:57:26.771Z,90.56
2018-01-19T07:59:54.999Z,90.60
2018-01-19T08:02:23.080Z,90.25
2018-01-19T08:04:52.771Z,89.88
2018-01-19T08:07:20.961Z,89.16
2018-01-19T08:09:50.568Z,88.55
2018-01-19T08:12:18.769Z,89.45
2018-01-19T08:14:51.243Z,89.81
2018-01-19T08:17:19.423Z,89.24
2018-01-19T08:19:47.281Z,89.36
2018-01-19T08:22:15.363Z,89.02
2018-01-19T08:24:43.425Z,88.80
2018-01-19T08:27:13.009Z,88.90
2018-01-19T08:29:42.031Z,88.90
2018-01-19T08:32:10.104Z,89.03
2018-01-19T08:34:38.075Z,88.40
2018-01-19T08:37:06.251Z,88.65
2018-01-19T08:39:35.869Z,88.20
2018-01-19T08:42:06.808Z,87.60
2018-01-19T08:44:37.579Z,87.29
2018-01-19T08:47:06.465Z,86.99
2018-01-19T08:49:34.515Z,88.07
2018-01-19T08:52:02.497Z,88.44
2018-01-19T08:54:30.674Z,87.90
2018-01-19T08:57:00.891Z,88.30
2018-01-19T08:59:29.590Z,88.13
2018-01-19T09:01:57.443Z,87.89
2018-01-19T09:04:25.423Z,87.90
2018-01-19T09:06:53.273Z,87.83
2018-01-19T09:09:21.259Z,87.90
2018-01-19T09:11:49.232Z,88.25
2018-01-19T09:14:17.980Z,87.94
2018-01-19T09:16:47.784Z,88.09
2018-01-19T09:19:15.782Z,88.27
2018-01-19T09:21:43.980Z,88.57
2018-01-19T09:24:12.336Z,88.95
2018-01-19T09:26:42.835Z,88.65
2018-01-19T09:29:11.073Z,88.66
2018-01-19T09:31:40.276Z,89.21
2018-01-19T09:34:23.193Z,88.77
2018-01-19T09:36:51.164Z,89.08
2018-01-19T09:39:19.887Z,88.69
2018-01-19T09:41:47.794Z,88.91
2018-01-19T09:44:15.860Z,87.26
2018-01-19T09:46:43.982Z,86.39
2018-01-19T09:49:13.684Z,85.85
2018-01-19T09:51:41.822Z,83.96
2018-01-19T09:54:09.779Z,83.79
2018-01-19T09:56:39.491Z,82.01
2018-01-19T09:59:07.963Z,82.98
2018-01-19T10:01:36.014Z,83.29
2018-01-19T10:04:03.992Z,83.02
2018-01-19T10:06:32.027Z,82.57
2018-01-19T10:08:59.933Z,80.26
2018-01-19T10:11:28.004Z,80.10
2018-01-19T10:13:56.616Z,79.20
2018-01-19T10:16:24.568Z,79.03
2018-01-19T10:18:52.632Z,78.83
2018-01-19T10:21:24.284Z,78.91
2018-01-19T10:23:52.260Z,78.66
2018-01-19T10:26:20.144Z,79.27
2018-01-19T10:28:51.894Z,79.41
2018-01-19T10:31:19.772Z,79.96
2018-01-19T10:33:49.381Z,79.81
2018-01-19T10:36:17.448Z,79.28
2018-01-19T10:38:45.518Z,77.78
2018-01-19T10:41:15.835Z,78.63
2018-01-19T10:43:43.871Z,77.81
2018-01-19T10:46:14.779Z,77.52
2018-01-19T10:48:42.840Z,76.54
2018-01-19T10:51:10.808Z,77.29
2018-01-19T10:53:38.789Z,74.71
2018-01-19T10:56:06.964Z,75.20
2018-01-19T10:58:35.663Z,75.63
2018-01-19T11:01:03.724Z,75.42
2018-01-19T11:03:31.697Z,76.23
2018-01-19T11:06:00.375Z,75.09
2018-01-19T11:08:29.096Z,75.89
2018-01-19T11:10:58.080Z,76.50
2018-01-19T11:13:26.064Z,76.50
2018-01-19T11:15:54.220Z,74.39
2018-01-19T11:18:26.865Z,74.71
2018-01-19T11:20:55.518Z,74.70
2018-01-19T11:23:23.496Z,75.07
2018-01-19T11:25:51.536Z,74.97
2018-01-19T11:28:19.606Z,75.50
2018-01-19T11:30:47.787Z,76.39
2018-01-19T11:33:15.879Z,76.71
2018-01-19T11:35:45.730Z,77.45
2018-01-19T11:38:15.378Z,77.43
2018-01-19T11:40:43.462Z,77.83
2018-01-19T11:43:11.513Z,78.83
2018-01-19T11:45:39.521Z,78.13
2018-01-19T11:48:07.560Z,78.53
2018-01-19T11:50:38.074Z,78.91
2018-01-19T11:53:09.989Z,79.08
2018-01-19T11:55:39.790Z,78.44
2018-01-19T11:58:08.512Z,77.79
2018-01-19T12:00:36.368Z,76.71
2018-01-19T12:03:04.433Z,75.51
2018-01-19T12:05:32.487Z,77.23
2018-01-19T12:08:01.242Z,77.28
2018-01-19T12:10:32.207Z,75.62
2018-01-19T12:13:00.312Z,74.48
2018-01-19T12:15:28.388Z,74.63
2018-01-19T12:17:58.332Z,74.75
2018-01-19T12:20:27.535Z,72.88
2018-01-19T12:22:55.586Z,73.62
2018-01-19T12:25:23.706Z,74.70
2018-01-19T12:27:53.356Z,70.47
2018-01-19T12:30:21.397Z,68.19
2018-01-19T12:32:49.489Z,67.88
2018-01-19T12:35:19.034Z,66.81
2018-01-19T12:37:48.145Z,65.85
2018-01-19T12:40:26.132Z,65.13
2018-01-19T12:42:56.867Z,64.21
2018-01-19T12:45:24.940Z,63.04
2018-01-19T12:47:53.014Z,63.56
2018-01-19T12:50:20.918Z,63.39
2018-01-19T12:52:55.093Z,65.13
2018-01-19T12:55:23.567Z,64.80
2018-01-19T12:57:52.771Z,64.97
2018-01-19T13:00:20.778Z,65.90
2018-01-19T13:02:48.736Z,63.46
2018-01-19T13:05:16.678Z,63.29
2018-01-19T13:07:49.360Z,64.04
2018-01-19T13:10:20.954Z,65.02
2018-01-19T13:12:48.924Z,64.56
2018-01-19T13:15:16.799Z,64.00
2018-01-19T13:17:48.130Z,64.20
2018-01-19T13:20:22.253Z,63.98
2018-01-19T13:22:51.360Z,64.00
2018-01-19T13:25:22.126Z,61.91
2018-01-19T13:27:50.154Z,61.83
2018-01-19T13:30:21.096Z,62.21
2018-01-19T13:32:48.964Z,62.32
2018-01-19T13:35:22.979Z,62.09
2018-01-19T13:37:51.052Z,62.20
2018-01-19T13:40:22.058Z,63.56
2018-01-19T13:42:50.069Z,62.57
2018-01-19T13:45:20.592Z,64.56
2018-01-19T13:47:48.582Z,64.95
2018-01-19T13:50:16.565Z,64.30
2018-01-19T13:52:47.599Z,63.59
2018-01-19T13:55:15.642Z,63.59
2018-01-19T13:57:45.363Z,62.79
2018-01-19T14:00:13.392Z,64.23
2018-01-19T14:02:41.235Z,63.87
2018-01-19T14:05:12.244Z,63.46
2018-01-19T14:07:40.237Z,64.40
2018-01-19T14:10:08.212Z,64.99
2018-01-19T14:12:40.896Z,66.10
2018-01-19T14:15:08.966Z,65.94
2018-01-19T14:17:42.169Z,65.88
2018-01-19T14:20:11.848Z,66.18
2018-01-19T14:22:42.402Z,65.39
2018-01-19T14:25:16.315Z,65.18
2018-01-19T14:27:44.464Z,65.32
2018-01-19T14:30:13.952Z,65.60
2018-01-19T14:32:41.968Z,65.84
2018-01-19T14:35:10.051Z,64.91
2018-01-19T14:37:39.841Z,64.99
2018-01-19T14:40:13.770Z,67.15
2018-01-19T14:42:41.746Z,65.28
2018-01-19T14:45:09.713Z,66.54
2018-01-19T14:47:40.373Z,66.96
2018-01-19T14:50:12.550Z,66.76
2018-01-19T14:52:40.585Z,67.02
2018-01-19T14:55:14.701Z,67.21
2018-01-19T14:57:42.780Z,67.60
2018-01-19T15:00:11.235Z,68.96
2018-01-19T15:02:40.257Z,68.31
2018-01-19T15:05:10.983Z,69.18
2018-01-19T15:07:39.069Z,69.14
2018-01-19T15:10:10.173Z,69.57
2018-01-19T15:12:40.086Z,71.05
2018-01-19T15:15:08.134Z,71.43
2018-01-19T15:17:36.037Z,71.04
2018-01-19T15:20:04.057Z,71.31
2018-01-19T15:22:32.091Z,71.86
2018-01-19T15:25:00.228Z,71.80
2018-01-19T15:27:28.376Z,71.87
2018-01-19T15:29:56.349Z,72.39
2018-01-19T15:32:26.155Z,72.20
2018-01-19T15:34:54.314Z,72.38
2018-01-19T15:37:26.506Z,73.14
2018-01-19T15:39:54.696Z,73.03
2018-01-19T15:42:23.678Z,73.41
2018-01-19T15:44:51.667Z,73.48
2018-01-19T15:47:21.483Z,74.11
2018-01-19T15:49:51.168Z,74.46
2018-01-19T15:52:23.940Z,74.59
2018-01-19T15:54:53.719Z,74.38
2018-01-19T15:57:23.694Z,74.70
2018-01-19T15:59:51.771Z,75.58
2018-01-19T16:02:19.751Z,75.95
2018-01-19T16:04:49.351Z,76.55
2018-01-19T16:07:18.976Z,76.26
2018-01-19T16:09:48.710Z,77.17
2018-01-19T16:12:17.657Z,77.46
2018-01-19T16:14:48.243Z,77.63
2018-01-19T16:17:16.386Z,76.95
2018-01-19T16:19:44.461Z,76.95
2018-01-19T16:22:13.561Z,77.30
2018-01-19T16:24:43.175Z,77.02
2018-01-19T16:27:11.832Z,77.11
2018-01-19T16:29:40.413Z,77.24
2018-01-19T16:32:08.237Z,77.16
2018-01-19T16:34:35.986Z,77.68
2018-01-19T16:37:04.640Z,77.40
2018-01-19T16:39:33.238Z,78.19
2018-01-19T16:42:01.222Z,78.05
2018-01-19T16:44:29.919Z,77.99
2018-01-19T16:46:59.355Z,78.24
2018-01-19T16:49:27.991Z,78.18
2018-01-19T16:51:57.770Z,78.19
2018-01-19T16:54:25.636Z,78.37
2018-01-19T16:56:53.663Z,79.13
2018-01-19T16:59:21.857Z,79.27
2018-01-19T17:01:50.865Z,79.34
2018-01-19T17:04:21.618Z,79.87
2018-01-19T17:06:49.644Z,79.62
2018-01-19T17:09:17.820Z,79.88
2018-01-19T17:11:45.804Z,79.62
2018-01-19T17:14:15.237Z,79.44
2018-01-19T17:16:43.241Z,79.66
2018-01-19T17:19:11.351Z,79.66
2018-01-19T17:21:40.965Z,80.19
2018-01-19T17:24:09.981Z,80.01
2018-01-19T17:26:38.160Z,80.03
2018-01-19T17:29:06.208Z,79.94
2018-01-19T17:31:35.790Z,80.49
2018-01-19T17:34:03.899Z,81.12
2018-01-19T17:36:32.872Z,80.65
2018-01-19T17:39:00.769Z,81.11
2018-01-19T17:41:30.374Z,80.92
2018-01-19T17:44:02.206Z,81.08
2018-01-19T17:46:30.376Z,81.14
2018-01-19T17:48:58.729Z,81.30
2018-01-19T17:51:28.778Z,81.85
2018-01-19T17:53:57.010Z,81.75
2018-01-19T17:56:25.059Z,81.62
2018-01-19T17:58:53.135Z,81.85
2018-01-19T18:01:21.220Z,81.60
2018-01-19T18:03:49.277Z,81.80
2018-01-19T18:06:17.200Z,81.51
2018-01-19T18:08:45.432Z,81.78
2018-01-19T18:11:14.644Z,81.83
2018-01-19T18:13:43.678Z,81.63
2018-01-19T18:16:13.552Z,81.82
2018-01-19T18:18:41.620Z,81.91
2018-01-19T18:21:10.420Z,81.88
2018-01-19T18:23:39.196Z,82.19
2018-01-19T18:26:11.786Z,82.41
2018-01-19T18:28:39.968Z,82.52
2018-01-19T18:31:09.771Z,82.69
2018-01-19T18:33:38.571Z,82.62
2018-01-19T18:36:09.421Z,83.12
2018-01-19T18:38:37.578Z,83.08
2018-01-19T18:41:05.651Z,83.06
2018-01-19T18:43:35.477Z,82.94
2018-01-19T18:46:03.549Z,83.44
2018-01-19T18:48:33.282Z,83.50
2018-01-19T18:51:01.330Z,83.48
2018-01-19T18:53:29.516Z,83.42
2018-01-19T18:55:59.830Z,83.62
2018-01-19T18:58:28.051Z,83.65
2018-01-19T19:00:56.395Z,84.15
2018-01-19T19:03:24.378Z,84.58
2018-01-19T19:05:52.374Z,85.10
2018-01-19T19:08:22.536Z,84.93
2018-01-19T19:10:54.648Z,85.29
2018-01-19T19:13:22.917Z,86.08
2018-01-19T19:15:51.000Z,86.86
2018-01-19T19:18:19.201Z,87.21
2018-01-19T19:20:48.670Z,87.84
2018-01-19T19:23:25.355Z,88.28
2018-01-19T19:25:53.616Z,88.50
2018-01-19T19:28:22.926Z,88.77
2018-01-19T19:30:51.099Z,88.83
2018-01-19T19:33:26.649Z,89.03
2018-01-19T19:35:54.857Z,88.89
2018-01-19T19:38:23.133Z,89.15
2018-01-19T19:40:53.503Z,89.27
2018-01-19T19:43:22.562Z,89.25
2018-01-19T19:45:51.524Z,89.20
2018-01-19T19:48:22.771Z,89.60
2018-01-19T19:50:51.352Z,89.51
2018-01-19T19:53:21.555Z,89.80
2018-01-19T19:55:50.033Z,89.73
2018-01-19T19:58:19.263Z,89.84
2018-01-19T20:00:47.467Z,89.68
2018-01-19T20:03:17.337Z,89.71
2018-01-19T20:05:46.369Z,89.66
2018-01-19T20:08:15.583Z,89.75
2018-01-19T20:10:46.830Z,89.68
2018-01-19T20:13:15.336Z,89.81
2018-01-19T20:15:43.972Z,89.91
2018-01-19T20:18:13.249Z,90.06
2018-01-19T20:20:43.515Z,90.22
2018-01-19T20:23:12.534Z,90.20
2018-01-19T20:25:40.957Z,89.96
2018-01-19T20:28:15.624Z,89.95
2018-01-19T20:30:45.904Z,90.12
2018-01-19T20:33:15.025Z,90.10
2018-01-19T20:35:44.261Z,90.30
2018-01-19T20:38:12.756Z,90.21
2018-01-19T20:40:44.260Z,90.24
2018-01-19T20:43:13.433Z,90.43
2018-01-19T20:45:42.481Z,90.28
2018-01-19T20:48:11.585Z,90.25
2018-01-19T20:50:39.750Z,90.48
2018-01-19T20:53:08.076Z,90.49
2018-01-19T20:55:36.408Z,90.41
2018-01-19T20:58:04.783Z,90.20
2018-01-19T21:00:34.795Z,89.99
2018-01-19T21:03:04.746Z,90.35
2018-01-19T21:05:35.918Z,90.18
2018-01-19T21:08:05.176Z,90.26
2018-01-19T21:10:33.461Z,90.29
2018-01-19T21:13:02.638Z,90.56
2018-01-19T21:15:33.497Z,90.53
2018-01-19T21:18:01.657Z,90.79
2018-01-19T21:20:31.608Z,91.01
2018-01-19T21:22:59.963Z,91.19
2018-01-19T21:25:28.450Z,91.47
2018-01-19T21:27:56.670Z,91.78
2018-01-19T21:30:24.917Z,92.47
2018-01-19T21:32:53.182Z,92.89
2018-01-19T21:35:21.256Z,93.33
2018-01-19T21:37:50.146Z,93.66
2018-01-19T21:40:25.393Z,94.06
2018-01-19T21:42:55.224Z,94.42
2018-01-19T21:45:23.595Z,94.46
2018-01-19T21:47:57.111Z,94.80
2018-01-19T21:50:28.701Z,94.86
2018-01-19T21:52:57.090Z,94.86
2018-01-19T21:55:25.967Z,95.21
2018-01-19T21:57:56.485Z,95.09
2018-01-19T22:00:26.190Z,95.26
2018-01-19T22:02:54.444Z,95.06
2018-01-19T22:05:41.447Z,95.18
2018-01-19T22:08:12.263Z,95.24
2018-01-19T22:10:40.373Z,95.41
2018-01-19T22:13:08.442Z,95.38
2018-01-19T22:15:36.583Z,95.30
2018-01-19T22:18:04.684Z,95.46
2018-01-19T22:20:32.558Z,95.56
2018-01-19T22:23:01.950Z,95.41
2018-01-19T22:25:30.038Z,95.41
2018-01-19T22:27:58.136Z,95.56
2018-01-19T22:30:26.082Z,95.48
2018-01-19T22:32:54.170Z,95.54
2018-01-19T22:35:22.247Z,95.48
2018-01-19T22:37:50.320Z,95.51
2018-01-19T22:40:19.015Z,95.48
2018-01-19T22:42:47.078Z,95.30
2018-01-19T22:45:15.290Z,95.39
2018-01-19T22:47:46.190Z,95.46
2018-01-19T22:50:16.109Z,95.42
2018-01-19T22:52:43.985Z,95.44
2018-01-19T22:55:12.256Z,95.64
2018-01-19T22:57:40.128Z,95.68
2018-01-19T23:00:08.115Z,95.66
2018-01-19T23:02:36.174Z,95.88
2018-01-19T23:05:09.978Z,95.87
2018-01-19T23:07:38.246Z,95.98
2018-01-19T23:10:09.926Z,96.01
2018-01-19T23:12:39.680Z,96.05
2018-01-19T23:15:07.698Z,96.13
2018-01-19T23:17:35.777Z,96.28
2018-01-19T23:20:07.636Z,96.55
2018-01-19T23:22:35.622Z,96.69
2018-01-19T23:25:03.697Z,96.58
2018-01-19T23:27:31.682Z,96.70
2018-01-19T23:30:06.698Z,96.72
2018-01-19T23:32:34.804Z,96.75
2018-01-19T23:35:04.593Z,96.89
2018-01-19T23:37:32.670Z,97.02
2018-01-19T23:40:00.635Z,96.94
2018-01-19T23:42:28.706Z,97.07
2018-01-19T23:44:59.443Z,97.09
2018-01-19T23:47:29.047Z,97.11
2018-01-19T23:49:58.722Z,97.02
2018-01-19T23:52:26.742Z,96.88
2018-01-19T23:54:54.764Z,96.77
2018-01-19T23:57:24.526Z,96.66
2018-01-19T23:59:52.628Z,96.49
